sensor_id;sensor_type;location;lat;lon;timestamp;pressure;altitude;pressure_sealevel;temperature;humidity
77867;BME280;67271;59.120;37.970;2023-03-31T00:03:51;99636.38;;;-1.64;76.45
77867;BME280;67271;59.120;37.970;2023-03-31T00:06:27;99627.47;;;-1.63;76.34
77867;BME280;67271;59.120;37.970;2023-03-31T00:08:53;99619.13;;;-1.59;76.11
77867;BME280;67271;59.120;37.970;2023-03-31T00:11:22;99619.16;;;-1.49;75.47
77867;BME280;67271;59.120;37.970;2023-03-31T00:13:47;99627.41;;;-1.42;75.66
77867;BME280;67271;59.120;37.970;2023-03-31T00:16:13;99622.94;;;-1.42;75.50
77867;BME280;67271;59.120;37.970;2023-03-31T00:18:39;99621.28;;;-1.43;75.37
77867;BME280;67271;59.120;37.970;2023-03-31T00:21:20;99614.97;;;-1.42;75.51
77867;BME280;67271;59.120;37.970;2023-03-31T00:23:53;99616.94;;;-1.44;75.23
77867;BME280;67271;59.120;37.970;2023-03-31T00:26:19;99617.34;;;-1.48;75.33
77867;BME280;67271;59.120;37.970;2023-03-31T00:28:50;99615.53;;;-1.48;75.32
77867;BME280;67271;59.120;37.970;2023-03-31T00:31:15;99618.75;;;-1.44;75.44
77867;BME280;67271;59.120;37.970;2023-03-31T00:33:41;99614.00;;;-1.41;75.20
77867;BME280;67271;59.120;37.970;2023-03-31T00:36:08;99623.94;;;-1.43;74.99
77867;BME280;67271;59.120;37.970;2023-03-31T00:38:34;99623.94;;;-1.43;75.13
77867;BME280;67271;59.120;37.970;2023-03-31T00:41:01;99623.78;;;-1.41;75.25
77867;BME280;67271;59.120;37.970;2023-03-31T00:43:34;99626.19;;;-1.38;74.94
77867;BME280;67271;59.120;37.970;2023-03-31T00:46:17;99628.25;;;-1.42;74.85
77867;BME280;67271;59.120;37.970;2023-03-31T00:48:54;99630.66;;;-1.39;74.81
77867;BME280;67271;59.120;37.970;2023-03-31T00:51:23;99627.03;;;-1.38;74.93
77867;BME280;67271;59.120;37.970;2023-03-31T00:53:55;99624.75;;;-1.42;74.81
77867;BME280;67271;59.120;37.970;2023-03-31T00:56:25;99621.53;;;-1.46;74.71
77867;BME280;67271;59.120;37.970;2023-03-31T00:58:55;99629.75;;;-1.49;74.75
77867;BME280;67271;59.120;37.970;2023-03-31T01:01:22;99623.19;;;-1.54;74.48
77867;BME280;67271;59.120;37.970;2023-03-31T01:03:49;99632.50;;;-1.60;74.44
77867;BME280;67271;59.120;37.970;2023-03-31T01:06:17;99631.06;;;-1.64;74.86
77867;BME280;67271;59.120;37.970;2023-03-31T01:08:48;99636.19;;;-1.72;74.33
77867;BME280;67271;59.120;37.970;2023-03-31T01:11:18;99628.91;;;-1.80;74.22
77867;BME280;67271;59.120;37.970;2023-03-31T01:13:47;99642.03;;;-1.78;74.18
77867;BME280;67271;59.120;37.970;2023-03-31T01:16:16;99636.00;;;-1.80;74.07
77867;BME280;67271;59.120;37.970;2023-03-31T01:18:42;99635.75;;;-1.77;73.72
77867;BME280;67271;59.120;37.970;2023-03-31T01:22:04;99641.84;;;-1.86;74.21
77867;BME280;67271;59.120;37.970;2023-03-31T01:27:36;99649.47;;;-1.93;73.61
77867;BME280;67271;59.120;37.970;2023-03-31T01:47:04;99648.84;;;-2.06;73.87
77867;BME280;67271;59.120;37.970;2023-03-31T01:49:40;99643.66;;;-2.08;73.60
77867;BME280;67271;59.120;37.970;2023-03-31T01:57:44;99644.63;;;-2.29;73.79
77867;BME280;67271;59.120;37.970;2023-03-31T02:00:18;99640.19;;;-2.40;74.20
77867;BME280;67271;59.120;37.970;2023-03-31T02:03:05;99642.16;;;-2.42;74.31
77867;BME280;67271;59.120;37.970;2023-03-31T02:05:51;99643.13;;;-2.43;73.80
77867;BME280;67271;59.120;37.970;2023-03-31T02:08:31;99636.84;;;-2.42;73.96
77867;BME280;67271;59.120;37.970;2023-03-31T02:10:59;99634.53;;;-2.36;73.77
77867;BME280;67271;59.120;37.970;2023-03-31T02:13:27;99637.38;;;-2.27;73.16
77867;BME280;67271;59.120;37.970;2023-03-31T02:15:57;99634.63;;;-2.26;73.56
77867;BME280;67271;59.120;37.970;2023-03-31T02:18:28;99630.97;;;-2.25;73.33
77867;BME280;67271;59.120;37.970;2023-03-31T02:20:57;99626.38;;;-2.23;73.35
77867;BME280;67271;59.120;37.970;2023-03-31T02:23:26;99626.16;;;-2.20;73.13
77867;BME280;67271;59.120;37.970;2023-03-31T02:26:18;99623.38;;;-2.18;73.42
77867;BME280;67271;59.120;37.970;2023-03-31T02:28:45;99631.97;;;-2.26;73.43
77867;BME280;67271;59.120;37.970;2023-03-31T02:33:58;99627.75;;;-2.28;73.43
77867;BME280;67271;59.120;37.970;2023-03-31T02:36:24;99629.56;;;-2.29;73.68
77867;BME280;67271;59.120;37.970;2023-03-31T02:38:58;99630.53;;;-2.30;73.53
77867;BME280;67271;59.120;37.970;2023-03-31T02:41:26;99625.47;;;-2.33;73.48
77867;BME280;67271;59.120;37.970;2023-03-31T02:43:52;99623.81;;;-2.34;73.48
77867;BME280;67271;59.120;37.970;2023-03-31T02:46:20;99614.19;;;-2.35;73.90
77867;BME280;67271;59.120;37.970;2023-03-31T02:48:49;99614.94;;;-2.44;73.61
77867;BME280;67271;59.120;37.970;2023-03-31T02:51:37;99609.44;;;-2.52;73.78
77867;BME280;67271;59.120;37.970;2023-03-31T02:57:23;99603.84;;;-2.70;74.14
77867;BME280;67271;59.120;37.970;2023-03-31T03:00:05;99605.94;;;-2.85;74.27
77867;BME280;67271;59.120;37.970;2023-03-31T03:05:47;99599.50;;;-3.14;74.71
77867;BME280;67271;59.120;37.970;2023-03-31T03:08:47;99609.63;;;-3.19;74.74
77867;BME280;67271;59.120;37.970;2023-03-31T03:12:25;99600.25;;;-3.23;74.42
77867;BME280;67271;59.120;37.970;2023-03-31T03:14:45;99585.97;;;-3.32;74.57
77867;BME280;67271;59.120;37.970;2023-03-31T03:19:50;99600.78;;;-3.40;74.64
77867;BME280;67271;59.120;37.970;2023-03-31T03:22:17;99594.75;;;-3.42;74.63
77867;BME280;67271;59.120;37.970;2023-03-31T03:24:42;99588.28;;;-3.49;74.58
77867;BME280;67271;59.120;37.970;2023-03-31T03:27:09;99588.03;;;-3.58;74.88
77867;BME280;67271;59.120;37.970;2023-03-31T03:29:34;99585.63;;;-3.61;74.71
77867;BME280;67271;59.120;37.970;2023-03-31T03:32:00;99598.84;;;-3.61;74.95
77867;BME280;67271;59.120;37.970;2023-03-31T03:34:26;99589.94;;;-3.60;74.78
77867;BME280;67271;59.120;37.970;2023-03-31T03:36:51;99597.03;;;-3.60;74.81
77867;BME280;67271;59.120;37.970;2023-03-31T03:39:17;99600.75;;;-3.52;74.64
77867;BME280;67271;59.120;37.970;2023-03-31T03:41:43;99593.69;;;-3.40;74.12
77867;BME280;67271;59.120;37.970;2023-03-31T03:44:09;99600.03;;;-3.31;74.09
77867;BME280;67271;59.120;37.970;2023-03-31T03:46:34;99612.84;;;-3.16;73.53
77867;BME280;67271;59.120;37.970;2023-03-31T03:49:00;99607.69;;;-3.06;73.38
77867;BME280;67271;59.120;37.970;2023-03-31T03:51:26;99605.03;;;-2.95;72.80
77867;BME280;67271;59.120;37.970;2023-03-31T03:53:52;99608.84;;;-2.88;72.96
77867;BME280;67271;59.120;37.970;2023-03-31T03:56:18;99598.38;;;-2.89;72.95
77867;BME280;67271;59.120;37.970;2023-03-31T03:58:43;99604.69;;;-3.01;73.23
77867;BME280;67271;59.120;37.970;2023-03-31T04:01:09;99602.16;;;-3.14;73.56
77867;BME280;67271;59.120;37.970;2023-03-31T04:03:35;99599.44;;;-3.24;73.69
77867;BME280;67271;59.120;37.970;2023-03-31T04:06:01;99600.03;;;-3.31;74.09
77867;BME280;67271;59.120;37.970;2023-03-31T04:08:26;99601.84;;;-3.32;74.04
77867;BME280;67271;59.120;37.970;2023-03-31T04:10:52;99596.56;;;-3.32;74.18
77867;BME280;67271;59.120;37.970;2023-03-31T04:13:18;99600.16;;;-3.33;74.12
77867;BME280;67271;59.120;37.970;2023-03-31T04:15:45;99599.66;;;-3.27;74.28
77867;BME280;67271;59.120;37.970;2023-03-31T04:18:11;99588.56;;;-3.09;74.03
77867;BME280;67271;59.120;37.970;2023-03-31T04:20:50;99587.69;;;-1.23;70.04
77867;BME280;67271;59.120;37.970;2023-03-31T04:23:32;99573.31;;;1.41;62.92
77867;BME280;67271;59.120;37.970;2023-03-31T04:25:59;99574.56;;;3.42;58.40
77867;BME280;67271;59.120;37.970;2023-03-31T04:28:25;99566.69;;;4.77;56.04
77867;BME280;67271;59.120;37.970;2023-03-31T04:31:00;99566.31;;;6.10;54.40
77867;BME280;67271;59.120;37.970;2023-03-31T04:33:27;99560.34;;;6.82;53.96
77867;BME280;67271;59.120;37.970;2023-03-31T04:35:52;99565.31;;;6.99;54.34
77867;BME280;67271;59.120;37.970;2023-03-31T04:38:21;99553.56;;;6.86;54.81
77867;BME280;67271;59.120;37.970;2023-03-31T04:40:50;99558.03;;;7.29;55.14
77867;BME280;67271;59.120;37.970;2023-03-31T04:43:18;99549.19;;;7.99;53.27
77867;BME280;67271;59.120;37.970;2023-03-31T04:45:44;99547.88;;;8.16;53.15
77867;BME280;67271;59.120;37.970;2023-03-31T04:48:10;99553.63;;;8.35;52.51
77867;BME280;67271;59.120;37.970;2023-03-31T04:50:36;99550.97;;;8.69;51.78
77867;BME280;67271;59.120;37.970;2023-03-31T04:53:03;99541.47;;;9.34;51.66
77867;BME280;67271;59.120;37.970;2023-03-31T04:55:30;99548.63;;;10.01;49.97
77867;BME280;67271;59.120;37.970;2023-03-31T04:57:56;99551.34;;;10.67;48.56
77867;BME280;67271;59.120;37.970;2023-03-31T05:00:22;99548.81;;;10.72;48.35
77867;BME280;67271;59.120;37.970;2023-03-31T05:02:48;99557.50;;;10.87;47.87
77867;BME280;67271;59.120;37.970;2023-03-31T05:05:14;99550.66;;;10.78;47.59
77867;BME280;67271;59.120;37.970;2023-03-31T05:07:40;99562.03;;;9.35;50.26
77867;BME280;67271;59.120;37.970;2023-03-31T05:10:06;99564.75;;;8.25;52.26
77867;BME280;67271;59.120;37.970;2023-03-31T05:12:36;99567.25;;;8.89;50.06
77867;BME280;67271;59.120;37.970;2023-03-31T05:15:03;99563.06;;;9.34;48.28
77867;BME280;67271;59.120;37.970;2023-03-31T05:17:34;99557.94;;;9.52;47.23
77867;BME280;67271;59.120;37.970;2023-03-31T05:20:00;99558.56;;;9.54;47.10
77867;BME280;67271;59.120;37.970;2023-03-31T05:22:36;99557.38;;;10.16;46.23
77867;BME280;67271;59.120;37.970;2023-03-31T05:25:04;99557.63;;;10.21;46.01
77867;BME280;67271;59.120;37.970;2023-03-31T05:27:31;99555.31;;;10.12;46.09
77867;BME280;67271;59.120;37.970;2023-03-31T05:29:57;99558.38;;;10.81;45.17
77867;BME280;67271;59.120;37.970;2023-03-31T05:32:25;99570.38;;;10.98;44.58
77867;BME280;67271;59.120;37.970;2023-03-31T05:34:51;99567.09;;;10.90;44.52
77867;BME280;67271;59.120;37.970;2023-03-31T05:37:22;99564.41;;;10.70;45.27
77867;BME280;67271;59.120;37.970;2023-03-31T05:39:49;99560.19;;;10.94;44.19
77867;BME280;67271;59.120;37.970;2023-03-31T05:42:15;99562.47;;;10.90;43.88
77867;BME280;67271;59.120;37.970;2023-03-31T05:44:40;99565.44;;;10.89;43.71
77867;BME280;67271;59.120;37.970;2023-03-31T05:47:06;99556.41;;;11.01;43.58
77867;BME280;67271;59.120;37.970;2023-03-31T05:49:32;99559.06;;;11.14;42.80
77867;BME280;67271;59.120;37.970;2023-03-31T05:51:58;99563.84;;;10.41;43.80
77867;BME280;67271;59.120;37.970;2023-03-31T05:54:23;99569.69;;;10.25;43.94
77867;BME280;67271;59.120;37.970;2023-03-31T05:56:50;99562.13;;;10.73;42.79
77867;BME280;67271;59.120;37.970;2023-03-31T05:59:15;99563.19;;;10.66;42.72
77867;BME280;67271;59.120;37.970;2023-03-31T06:01:41;99562.53;;;10.77;42.07
77867;BME280;67271;59.120;37.970;2023-03-31T06:04:07;99561.03;;;10.94;42.21
77867;BME280;67271;59.120;37.970;2023-03-31T06:06:33;99566.59;;;11.12;41.77
77867;BME280;67271;59.120;37.970;2023-03-31T06:08:59;99561.59;;;11.54;41.16
77867;BME280;67271;59.120;37.970;2023-03-31T06:11:25;99560.09;;;11.64;41.12
77867;BME280;67271;59.120;37.970;2023-03-31T06:13:51;99559.97;;;11.84;40.83
77867;BME280;67271;59.120;37.970;2023-03-31T06:16:17;99551.63;;;11.86;40.96
77867;BME280;67271;59.120;37.970;2023-03-31T06:18:44;99550.50;;;11.62;41.30
77867;BME280;67271;59.120;37.970;2023-03-31T06:21:13;99553.53;;;11.41;41.38
77867;BME280;67271;59.120;37.970;2023-03-31T06:23:39;99546.25;;;11.41;41.28
77867;BME280;67271;59.120;37.970;2023-03-31T06:26:06;99549.97;;;11.02;41.13
77867;BME280;67271;59.120;37.970;2023-03-31T06:28:34;99545.09;;;10.46;42.26
77867;BME280;67271;59.120;37.970;2023-03-31T06:31:05;99547.16;;;9.85;42.59
77867;BME280;67271;59.120;37.970;2023-03-31T06:33:32;99545.47;;;9.64;42.67
77867;BME280;67271;59.120;37.970;2023-03-31T06:35:58;99545.69;;;9.56;42.63
77867;BME280;67271;59.120;37.970;2023-03-31T06:38:26;99544.19;;;9.41;42.64
77867;BME280;67271;59.120;37.970;2023-03-31T06:40:52;99548.75;;;9.40;42.54
77867;BME280;67271;59.120;37.970;2023-03-31T06:43:19;99549.66;;;9.74;41.78
77867;BME280;67271;59.120;37.970;2023-03-31T06:45:45;99546.31;;;9.58;41.79
77867;BME280;67271;59.120;37.970;2023-03-31T06:48:12;99539.84;;;9.46;42.21
77867;BME280;67271;59.120;37.970;2023-03-31T06:50:38;99534.09;;;9.89;41.56
77867;BME280;67271;59.120;37.970;2023-03-31T06:53:09;99534.72;;;9.91;41.56
77867;BME280;67271;59.120;37.970;2023-03-31T06:55:36;99539.69;;;9.94;41.83
77867;BME280;67271;59.120;37.970;2023-03-31T06:58:02;99531.00;;;10.18;41.75
77867;BME280;67271;59.120;37.970;2023-03-31T07:00:29;99530.16;;;10.44;41.26
77867;BME280;67271;59.120;37.970;2023-03-31T07:02:54;99537.44;;;10.43;41.02
77867;BME280;67271;59.120;37.970;2023-03-31T07:05:20;99535.53;;;9.71;41.47
77867;BME280;67271;59.120;37.970;2023-03-31T07:07:56;99536.09;;;9.41;42.61
77867;BME280;67271;59.120;37.970;2023-03-31T07:10:23;99531.97;;;9.58;42.13
77867;BME280;67271;59.120;37.970;2023-03-31T07:12:49;99537.16;;;8.85;42.43
77867;BME280;67271;59.120;37.970;2023-03-31T07:15:15;99529.44;;;8.41;43.20
77867;BME280;67271;59.120;37.970;2023-03-31T07:17:41;99533.84;;;8.28;44.00
77867;BME280;67271;59.120;37.970;2023-03-31T07:20:12;99533.91;;;8.62;43.02
77867;BME280;67271;59.120;37.970;2023-03-31T07:22:40;99529.72;;;8.53;42.95
77867;BME280;67271;59.120;37.970;2023-03-31T07:25:07;99525.53;;;8.23;43.45
77867;BME280;67271;59.120;37.970;2023-03-31T07:27:34;99518.16;;;8.03;43.40
77867;BME280;67271;59.120;37.970;2023-03-31T07:30:00;99525.72;;;7.93;43.92
77867;BME280;67271;59.120;37.970;2023-03-31T07:32:26;99520.84;;;7.82;43.95
77867;BME280;67271;59.120;37.970;2023-03-31T07:34:51;99525.09;;;7.70;43.67
77867;BME280;67271;59.120;37.970;2023-03-31T07:37:17;99526.19;;;7.75;44.43
77867;BME280;67271;59.120;37.970;2023-03-31T07:39:43;99517.81;;;8.20;43.44
77867;BME280;67271;59.120;37.970;2023-03-31T07:42:09;99516.81;;;8.21;43.77
77867;BME280;67271;59.120;37.970;2023-03-31T07:44:35;99518.56;;;8.07;44.06
77867;BME280;67271;59.120;37.970;2023-03-31T07:47:02;99522.09;;;8.07;43.95
77867;BME280;67271;59.120;37.970;2023-03-31T07:49:31;99524.88;;;8.21;43.66
77867;BME280;67271;59.120;37.970;2023-03-31T07:51:57;99521.91;;;8.09;43.99
77867;BME280;67271;59.120;37.970;2023-03-31T07:54:24;99524.28;;;7.97;44.27
77867;BME280;67271;59.120;37.970;2023-03-31T07:56:50;99524.28;;;7.97;43.91
77867;BME280;67271;59.120;37.970;2023-03-31T07:59:15;99521.72;;;7.61;44.01
77867;BME280;67271;59.120;37.970;2023-03-31T08:01:41;99519.38;;;7.16;44.47
77867;BME280;67271;59.120;37.970;2023-03-31T08:04:09;99522.22;;;6.78;44.69
77867;BME280;67271;59.120;37.970;2023-03-31T08:06:36;99513.34;;;6.19;44.64
77867;BME280;67271;59.120;37.970;2023-03-31T08:09:03;99502.50;;;5.75;45.02
77867;BME280;67271;59.120;37.970;2023-03-31T08:11:29;99503.09;;;5.25;45.59
77867;BME280;67271;59.120;37.970;2023-03-31T08:13:55;99509.66;;;4.91;46.10
77867;BME280;67271;59.120;37.970;2023-03-31T08:16:21;99507.22;;;4.74;45.94
77867;BME280;67271;59.120;37.970;2023-03-31T08:18:47;99515.25;;;4.43;46.44
77867;BME280;67271;59.120;37.970;2023-03-31T08:21:13;99505.59;;;4.25;46.10
77867;BME280;67271;59.120;37.970;2023-03-31T08:23:39;99504.25;;;4.21;46.50
77867;BME280;67271;59.120;37.970;2023-03-31T08:26:17;99496.22;;;4.21;46.51
77867;BME280;67271;59.120;37.970;2023-03-31T08:28:44;99499.75;;;4.14;46.31
77867;BME280;67271;59.120;37.970;2023-03-31T08:31:09;99495.22;;;4.14;46.61
77867;BME280;67271;59.120;37.970;2023-03-31T08:33:36;99488.16;;;4.21;46.38
77867;BME280;67271;59.120;37.970;2023-03-31T08:36:03;99482.81;;;4.21;46.83
77867;BME280;67271;59.120;37.970;2023-03-31T08:38:30;99476.28;;;4.24;46.77
77867;BME280;67271;59.120;37.970;2023-03-31T08:41:05;99486.47;;;4.28;46.97
77867;BME280;67271;59.120;37.970;2023-03-31T08:43:39;99475.28;;;4.25;46.45
77867;BME280;67271;59.120;37.970;2023-03-31T08:46:11;99472.22;;;4.36;46.37
77867;BME280;67271;59.120;37.970;2023-03-31T08:48:45;99465.34;;;4.42;46.25
77867;BME280;67271;59.120;37.970;2023-03-31T08:53:54;99466.44;;;4.16;46.72
77867;BME280;67271;59.120;37.970;2023-03-31T08:56:23;99473.50;;;4.01;47.07
77867;BME280;67271;59.120;37.970;2023-03-31T08:58:51;99475.31;;;4.17;47.19
77867;BME280;67271;59.120;37.970;2023-03-31T09:02:20;99472.41;;;4.35;46.10
77867;BME280;67271;59.120;37.970;2023-03-31T09:10:09;99468.50;;;4.45;47.07
77867;BME280;67271;59.120;37.970;2023-03-31T09:18:31;99451.06;;;4.57;46.38
77867;BME280;67271;59.120;37.970;2023-03-31T09:21:16;99440.75;;;4.69;46.47
77867;BME280;67271;59.120;37.970;2023-03-31T09:27:09;99431.66;;;4.78;45.93
77867;BME280;67271;59.120;37.970;2023-03-31T09:29:50;99434.81;;;4.82;46.62
77867;BME280;67271;59.120;37.970;2023-03-31T09:32:20;99432.75;;;4.92;46.07
77867;BME280;67271;59.120;37.970;2023-03-31T09:34:51;99438.00;;;4.85;46.03
77867;BME280;67271;59.120;37.970;2023-03-31T09:37:18;99434.59;;;4.91;46.71
77867;BME280;67271;59.120;37.970;2023-03-31T09:39:44;99426.56;;;4.91;46.35
77867;BME280;67271;59.120;37.970;2023-03-31T09:42:13;99437.09;;;4.93;46.06
77867;BME280;67271;59.120;37.970;2023-03-31T09:44:43;99439.53;;;4.80;46.39
77867;BME280;67271;59.120;37.970;2023-03-31T09:47:25;99430.13;;;4.84;46.39
77867;BME280;67271;59.120;37.970;2023-03-31T09:49:53;99439.00;;;4.84;45.91
77867;BME280;67271;59.120;37.970;2023-03-31T09:52:31;99434.81;;;4.82;46.12
77867;BME280;67271;59.120;37.970;2023-03-31T09:55:00;99425.31;;;4.79;46.13
77867;BME280;67271;59.120;37.970;2023-03-31T09:57:34;99423.81;;;4.77;45.92
77867;BME280;67271;59.120;37.970;2023-03-31T10:00:23;99431.50;;;4.80;46.17
77867;BME280;67271;59.120;37.970;2023-03-31T10:03:00;99426.25;;;4.86;45.91
77867;BME280;67271;59.120;37.970;2023-03-31T10:05:33;99415.16;;;4.89;45.80
77867;BME280;67271;59.120;37.970;2023-03-31T10:08:30;99408.34;;;5.10;45.67
77867;BME280;67271;59.120;37.970;2023-03-31T10:13:39;99409.97;;;5.33;45.65
77867;BME280;67271;59.120;37.970;2023-03-31T10:16:21;99409.72;;;5.43;45.19
77867;BME280;67271;59.120;37.970;2023-03-31T10:18:47;99405.63;;;5.32;45.91
77867;BME280;67271;59.120;37.970;2023-03-31T10:21:26;99409.56;;;5.22;45.35
77867;BME280;67271;59.120;37.970;2023-03-31T10:23:53;99412.53;;;5.27;45.72
77867;BME280;67271;59.120;37.970;2023-03-31T10:26:21;99413.78;;;5.39;45.54
77867;BME280;67271;59.120;37.970;2023-03-31T10:28:50;99411.56;;;5.42;45.77
77867;BME280;67271;59.120;37.970;2023-03-31T10:31:32;99412.03;;;5.46;45.75
77867;BME280;67271;59.120;37.970;2023-03-31T10:34:04;99421.28;;;5.43;45.92
77867;BME280;67271;59.120;37.970;2023-03-31T10:36:30;99416.94;;;5.20;45.37
77867;BME280;67271;59.120;37.970;2023-03-31T10:38:57;99412.19;;;5.07;45.64
77867;BME280;67271;59.120;37.970;2023-03-31T10:41:27;99411.34;;;5.06;45.11
77867;BME280;67271;59.120;37.970;2023-03-31T10:43:59;99402.53;;;5.21;45.16
77867;BME280;67271;59.120;37.970;2023-03-31T10:46:48;99404.72;;;5.40;44.35
77867;BME280;67271;59.120;37.970;2023-03-31T10:49:38;99407.19;;;5.41;43.84
77867;BME280;67271;59.120;37.970;2023-03-31T10:52:21;99390.56;;;5.46;43.54
77867;BME280;67271;59.120;37.970;2023-03-31T10:54:52;99395.44;;;5.42;43.87
77867;BME280;67271;59.120;37.970;2023-03-31T10:57:27;99399.28;;;5.48;43.29
77867;BME280;67271;59.120;37.970;2023-03-31T11:10:48;99388.94;;;5.74;43.22
77867;BME280;67271;59.120;37.970;2023-03-31T11:19:52;99368.13;;;5.62;43.14
77867;BME280;67271;59.120;37.970;2023-03-31T11:25:19;99372.25;;;5.79;42.37
77867;BME280;67271;59.120;37.970;2023-03-31T11:30:33;99366.28;;;5.92;41.70
77867;BME280;67271;59.120;37.970;2023-03-31T11:42:11;99343.22;;;5.97;40.58
77867;BME280;67271;59.120;37.970;2023-03-31T11:44:40;99345.25;;;5.80;39.85
77867;BME280;67271;59.120;37.970;2023-03-31T11:47:15;99342.28;;;5.75;40.22
77867;BME280;67271;59.120;37.970;2023-03-31T11:49:53;99334.59;;;5.72;40.12
77867;BME280;67271;59.120;37.970;2023-03-31T11:52:36;99337.84;;;5.82;40.08
77867;BME280;67271;59.120;37.970;2023-03-31T11:55:05;99346.09;;;5.96;40.00
77867;BME280;67271;59.120;37.970;2023-03-31T11:57:44;99333.31;;;6.12;39.89
77867;BME280;67271;59.120;37.970;2023-03-31T12:00:18;99332.50;;;6.33;40.02
77867;BME280;67271;59.120;37.970;2023-03-31T12:02:56;99331.25;;;6.50;39.77
77867;BME280;67271;59.120;37.970;2023-03-31T12:05:26;99327.84;;;6.42;39.39
77867;BME280;67271;59.120;37.970;2023-03-31T12:08:12;99326.25;;;6.47;39.30
77867;BME280;67271;59.120;37.970;2023-03-31T12:10:45;99311.41;;;6.30;40.08
77867;BME280;67271;59.120;37.970;2023-03-31T12:16:18;99305.28;;;6.36;40.26
77867;BME280;67271;59.120;37.970;2023-03-31T12:19:01;99303.25;;;6.59;39.72
77867;BME280;67271;59.120;37.970;2023-03-31T12:21:31;99303.59;;;6.78;40.21
77867;BME280;67271;59.120;37.970;2023-03-31T12:23:58;99298.50;;;6.83;39.47
77867;BME280;67271;59.120;37.970;2023-03-31T12:26:45;99286.44;;;6.79;40.30
77867;BME280;67271;59.120;37.970;2023-03-31T12:32:02;99280.44;;;6.77;39.86
77867;BME280;67271;59.120;37.970;2023-03-31T12:34:30;99272.59;;;6.75;39.98
77867;BME280;67271;59.120;37.970;2023-03-31T12:37:28;99276.09;;;6.76;39.96
77867;BME280;67271;59.120;37.970;2023-03-31T12:48:10;99263.78;;;6.88;39.72
77867;BME280;67271;59.120;37.970;2023-03-31T12:55:56;99242.31;;;6.67;40.31
77867;BME280;67271;59.120;37.970;2023-03-31T13:01:04;99237.69;;;6.82;39.94
77867;BME280;67271;59.120;37.970;2023-03-31T13:06:03;99241.00;;;6.84;39.48
77867;BME280;67271;59.120;37.970;2023-03-31T13:11:14;99222.09;;;6.77;39.60
77867;BME280;67271;59.120;37.970;2023-03-31T13:14:10;99221.72;;;6.80;39.68
77867;BME280;67271;59.120;37.970;2023-03-31T13:16:32;99217.44;;;6.86;39.45
77867;BME280;67271;59.120;37.970;2023-03-31T13:18:59;99211.72;;;6.95;39.42
77867;BME280;67271;59.120;37.970;2023-03-31T13:21:25;99211.34;;;6.98;38.84
77867;BME280;67271;59.120;37.970;2023-03-31T13:23:52;99213.03;;;7.06;38.87
77867;BME280;67271;59.120;37.970;2023-03-31T13:26:37;99205.81;;;7.07;38.87
77867;BME280;67271;59.120;37.970;2023-03-31T13:29:19;99202.38;;;6.91;38.50
77867;BME280;67271;59.120;37.970;2023-03-31T13:34:42;99206.94;;;6.70;38.87
77867;BME280;67271;59.120;37.970;2023-03-31T13:45:32;99194.56;;;6.47;38.59
77867;BME280;67271;59.120;37.970;2023-03-31T13:48:13;99193.06;;;6.38;38.17
77867;BME280;67271;59.120;37.970;2023-03-31T14:02:32;99174.53;;;6.01;37.86
77867;BME280;67271;59.120;37.970;2023-03-31T14:05:16;99177.75;;;5.96;37.79
77867;BME280;67271;59.120;37.970;2023-03-31T14:10:36;99170.31;;;5.77;37.16
77867;BME280;67271;59.120;37.970;2023-03-31T14:13:11;99174.56;;;5.71;38.07
77867;BME280;67271;59.120;37.970;2023-03-31T14:15:48;99176.81;;;5.68;37.88
77867;BME280;67271;59.120;37.970;2023-03-31T14:18:24;99178.75;;;5.59;37.67
77867;BME280;67271;59.120;37.970;2023-03-31T14:23:55;99170.94;;;5.43;37.21
77867;BME280;67271;59.120;37.970;2023-03-31T14:29:49;99161.78;;;5.37;37.19
77867;BME280;67271;59.120;37.970;2023-03-31T14:37:52;99153.69;;;5.16;37.26
77867;BME280;67271;59.120;37.970;2023-03-31T14:40:19;99154.22;;;5.12;36.68
77867;BME280;67271;59.120;37.970;2023-03-31T14:42:45;99151.09;;;5.08;36.56
77867;BME280;67271;59.120;37.970;2023-03-31T14:45:25;99149.34;;;5.00;37.20
77867;BME280;67271;59.120;37.970;2023-03-31T14:48:14;99147.22;;;4.96;37.10
77867;BME280;67271;59.120;37.970;2023-03-31T14:50:43;99144.25;;;4.91;36.85
77867;BME280;67271;59.120;37.970;2023-03-31T14:53:16;99139.28;;;4.88;36.90
77867;BME280;67271;59.120;37.970;2023-03-31T14:55:44;99144.16;;;4.84;36.62
77867;BME280;67271;59.120;37.970;2023-03-31T14:58:13;99139.53;;;4.93;36.43
77867;BME280;67271;59.120;37.970;2023-03-31T15:00:43;99139.47;;;4.86;36.08
77867;BME280;67271;59.120;37.970;2023-03-31T15:03:13;99139.91;;;4.75;36.62
77867;BME280;67271;59.120;37.970;2023-03-31T15:05:40;99141.03;;;4.66;36.72
77867;BME280;67271;59.120;37.970;2023-03-31T15:08:16;99141.28;;;4.56;36.74
77867;BME280;67271;59.120;37.970;2023-03-31T15:10:48;99134.16;;;4.49;36.87
77867;BME280;67271;59.120;37.970;2023-03-31T15:13:43;99141.25;;;4.42;37.00
77867;BME280;67271;59.120;37.970;2023-03-31T15:19:19;99130.69;;;4.25;37.08
77867;BME280;67271;59.120;37.970;2023-03-31T15:21:55;99132.44;;;4.18;37.75
77867;BME280;67271;59.120;37.970;2023-03-31T15:24:22;99139.16;;;4.14;37.93
77867;BME280;67271;59.120;37.970;2023-03-31T15:26:59;99132.50;;;4.10;37.89
77867;BME280;67271;59.120;37.970;2023-03-31T15:31:56;99125.19;;;4.04;37.96
77867;BME280;67271;59.120;37.970;2023-03-31T15:34:30;99130.44;;;3.98;38.12
77867;BME280;67271;59.120;37.970;2023-03-31T15:37:01;99129.50;;;3.91;37.67
77867;BME280;67271;59.120;37.970;2023-03-31T15:39:30;99125.22;;;3.81;37.99
77867;BME280;67271;59.120;37.970;2023-03-31T15:41:57;99120.84;;;3.80;38.24
77867;BME280;67271;59.120;37.970;2023-03-31T15:44:45;99128.06;;;3.80;37.67
77867;BME280;67271;59.120;37.970;2023-03-31T15:47:19;99127.09;;;3.73;38.09
77867;BME280;67271;59.120;37.970;2023-03-31T15:49:53;99122.09;;;3.70;37.98
77867;BME280;67271;59.120;37.970;2023-03-31T15:52:32;99126.97;;;3.66;37.76
77867;BME280;67271;59.120;37.970;2023-03-31T15:54:59;99122.53;;;3.59;37.87
77867;BME280;67271;59.120;37.970;2023-03-31T15:57:33;99126.91;;;3.52;38.07